createdAt,value
2019-05-02T00:02:30.085Z,61.16
2019-05-02T00:05:00.050Z,61.02
2019-05-02T00:07:29.739Z,60.79
2019-05-02T00:09:59.812Z,60.47
2019-05-02T00:12:29.808Z,59.99
2019-05-02T00:15:02.378Z,60.56
2019-05-02T00:17:31.826Z,59.51
2019-05-02T00:20:01.463Z,61.30
2019-05-02T00:22:31.190Z,61.52
2019-05-02T00:25:00.895Z,61.53
2019-05-02T00:27:32.852Z,61.79
2019-05-02T00:30:01.993Z,60.80
2019-05-02T00:32:31.650Z,62.52
2019-05-02T00:35:01.353Z,62.78
2019-05-02T00:37:30.983Z,63.39
2019-05-02T00:40:00.715Z,64.54
2019-05-02T00:42:30.459Z,65.38
2019-05-02T00:45:00.110Z,64.87
2019-05-02T00:47:31.375Z,64.54
2019-05-02T00:50:01.025Z,64.39
2019-05-02T00:52:32.856Z,64.10
2019-05-02T00:55:02.039Z,64.26
2019-05-02T00:57:31.658Z,64.08
2019-05-02T01:00:01.317Z,64.45
2019-05-02T01:02:35.950Z,64.03
2019-05-02T01:05:07.801Z,64.49
2019-05-02T01:07:37.423Z,64.79
2019-05-02T01:10:08.444Z,64.58
2019-05-02T01:12:39.927Z,65.31
2019-05-02T01:15:10.152Z,65.44
2019-05-02T01:17:39.809Z,64.96
2019-05-02T01:20:10.244Z,64.28
2019-05-02T01:22:39.928Z,63.71
2019-05-02T01:25:15.325Z,62.18
2019-05-02T01:27:48.745Z,62.43
2019-05-02T01:30:18.856Z,62.43
2019-05-02T01:33:06.601Z,62.67
2019-05-02T01:35:40.188Z,62.61
2019-05-02T01:38:31.801Z,62.26
2019-05-02T01:40:58.206Z,61.46
2019-05-02T01:43:31.319Z,62.64
2019-05-02T01:46:01.090Z,61.39
2019-05-02T01:48:30.786Z,61.51
2019-05-02T01:51:04.676Z,61.65
2019-05-02T01:53:34.205Z,62.15
2019-05-02T01:56:03.197Z,62.43
2019-05-02T01:58:32.888Z,64.09
2019-05-02T02:01:02.621Z,64.46
2019-05-02T02:03:32.233Z,63.73
2019-05-02T02:06:02.760Z,64.03
2019-05-02T02:08:34.016Z,63.73
2019-05-02T02:11:03.884Z,63.16
2019-05-02T02:13:36.401Z,62.68
2019-05-02T02:16:05.921Z,65.35
2019-05-02T02:18:40.240Z,65.49
2019-05-02T02:21:12.147Z,67.51
2019-05-02T02:23:52.447Z,66.95
2019-05-02T02:26:23.851Z,66.32
2019-05-02T02:28:53.570Z,63.76
2019-05-02T02:31:23.355Z,63.95
2019-05-02T02:33:53.029Z,64.01
2019-05-02T02:36:31.685Z,65.46
2019-05-02T02:38:54.082Z,63.66
2019-05-02T02:41:23.724Z,64.30
2019-05-02T02:44:03.941Z,65.19
2019-05-02T02:46:38.050Z,66.09
2019-05-02T02:49:06.760Z,65.26
2019-05-02T02:51:36.412Z,63.99
2019-05-02T02:54:06.189Z,65.24
2019-05-02T02:56:40.416Z,65.32
2019-05-02T02:59:07.396Z,66.04
2019-05-02T03:01:37.038Z,64.32
2019-05-02T03:04:09.471Z,64.79
2019-05-02T03:06:44.251Z,63.50
2019-05-02T03:09:09.679Z,64.39
2019-05-02T03:11:40.956Z,66.33
2019-05-02T03:14:17.734Z,65.56
2019-05-02T03:16:49.587Z,64.56
2019-05-02T03:19:21.213Z,65.78
2019-05-02T03:22:00.886Z,65.77
2019-05-02T03:24:27.879Z,65.45
2019-05-02T03:26:58.546Z,64.03
2019-05-02T03:29:39.789Z,63.07
2019-05-02T03:32:14.339Z,63.69
2019-05-02T03:34:47.367Z,64.57
2019-05-02T03:37:09.571Z,64.41
2019-05-02T03:39:34.439Z,64.13
2019-05-02T03:42:05.080Z,62.67
2019-05-02T03:44:35.017Z,63.79
2019-05-02T03:47:05.250Z,62.05
2019-05-02T03:49:41.225Z,63.63
2019-05-02T03:52:07.017Z,63.69
2019-05-02T03:54:48.584Z,63.75
2019-05-02T03:57:08.650Z,63.42
2019-05-02T03:59:41.593Z,64.32
2019-05-02T04:02:14.030Z,64.49
2019-05-02T04:04:43.305Z,64.65
2019-05-02T04:07:13.872Z,65.10
2019-05-02T04:09:43.595Z,65.74
2019-05-02T04:12:18.551Z,65.82
2019-05-02T04:14:45.069Z,64.85
2019-05-02T04:17:15.696Z,64.46
2019-05-02T04:19:45.688Z,64.40
2019-05-02T04:22:16.415Z,65.57
2019-05-02T04:24:54.585Z,66.20
2019-05-02T04:27:17.767Z,66.86
2019-05-02T04:29:47.417Z,65.36
2019-05-02T04:32:17.107Z,65.73
2019-05-02T04:34:49.045Z,66.31
2019-05-02T04:37:18.129Z,66.48
2019-05-02T04:39:49.112Z,66.50
2019-05-02T04:42:22.992Z,66.38
2019-05-02T04:45:11.897Z,66.37
2019-05-02T04:47:22.368Z,66.99
2019-05-02T04:49:52.301Z,68.20
2019-05-02T04:52:22.044Z,67.59
2019-05-02T04:54:51.666Z,67.70
2019-05-02T04:57:29.199Z,67.66
2019-05-02T05:00:04.949Z,68.95
2019-05-02T05:02:34.147Z,68.51
2019-05-02T05:04:55.410Z,67.93
2019-05-02T05:07:25.209Z,67.92
2019-05-02T05:09:58.196Z,67.74
2019-05-02T05:12:27.778Z,67.37
2019-05-02T05:14:57.862Z,68.27
2019-05-02T05:17:32.448Z,69.54
2019-05-02T05:20:10.446Z,69.64
2019-05-02T05:22:38.462Z,69.13
2019-05-02T05:25:17.742Z,68.85
2019-05-02T05:27:48.067Z,68.35
2019-05-02T05:30:19.442Z,69.66
2019-05-02T05:32:49.070Z,69.28
2019-05-02T05:35:18.800Z,68.81
2019-05-02T05:37:52.959Z,68.55
2019-05-02T05:40:22.578Z,68.52
2019-05-02T05:42:51.269Z,68.23
2019-05-02T05:45:20.952Z,68.02
2019-05-02T05:47:52.446Z,68.13
2019-05-02T05:50:22.043Z,67.86
2019-05-02T05:52:52.016Z,67.56
2019-05-02T05:55:24.458Z,68.29
2019-05-02T05:58:00.037Z,68.08
2019-05-02T06:00:24.673Z,68.35
2019-05-02T06:03:01.184Z,68.49
2019-05-02T06:05:27.654Z,68.37
2019-05-02T06:07:57.563Z,68.13
2019-05-02T06:10:27.359Z,68.00
2019-05-02T06:12:56.985Z,67.25
2019-05-02T06:15:26.648Z,67.59
2019-05-02T06:18:00.082Z,67.68
2019-05-02T06:20:30.635Z,68.36
2019-05-02T06:23:00.105Z,68.12
2019-05-02T06:25:34.180Z,68.21
2019-05-02T06:28:05.466Z,67.90
2019-05-02T06:30:33.277Z,68.07
2019-05-02T06:33:02.907Z,67.83
2019-05-02T06:35:32.585Z,67.14
2019-05-02T06:38:02.219Z,67.12
2019-05-02T06:40:31.852Z,67.68
2019-05-02T06:43:04.349Z,67.26
2019-05-02T06:45:37.564Z,67.16
2019-05-02T06:48:04.388Z,66.80
2019-05-02T06:50:38.803Z,66.58
2019-05-02T06:53:09.736Z,66.63
2019-05-02T06:55:38.746Z,66.25
2019-05-02T06:58:08.594Z,66.81
2019-05-02T07:00:55.645Z,66.60
2019-05-02T07:03:11.502Z,66.41
2019-05-02T07:05:43.827Z,66.23
2019-05-02T07:08:14.075Z,65.96
2019-05-02T07:10:45.196Z,66.00
2019-05-02T07:13:15.477Z,66.04
2019-05-02T07:15:48.601Z,66.30
2019-05-02T07:18:20.165Z,65.77
2019-05-02T07:20:49.906Z,65.45
2019-05-02T07:23:19.620Z,65.12
2019-05-02T07:25:49.260Z,64.78
2019-05-02T07:28:19.057Z,65.45
2019-05-02T07:30:48.702Z,65.34
2019-05-02T07:33:18.371Z,64.99
2019-05-02T07:35:48.067Z,65.10
2019-05-02T07:38:20.264Z,62.90
2019-05-02T07:40:53.061Z,62.54
2019-05-02T07:43:22.210Z,63.45
2019-05-02T07:45:52.116Z,63.35
2019-05-02T07:48:21.772Z,62.00
2019-05-02T07:50:51.850Z,61.27
2019-05-02T07:53:21.844Z,60.50
2019-05-02T07:55:51.513Z,60.53
2019-05-02T07:58:21.229Z,61.43
2019-05-02T08:00:50.887Z,61.20
2019-05-02T08:03:20.518Z,60.79
2019-05-02T08:05:54.491Z,60.67
2019-05-02T08:08:24.974Z,60.58
2019-05-02T08:10:53.371Z,60.54
2019-05-02T08:13:24.374Z,60.45
2019-05-02T08:15:54.014Z,57.83
2019-05-02T08:18:25.129Z,58.77
2019-05-02T08:20:56.094Z,59.15
2019-05-02T08:23:27.888Z,60.01
2019-05-02T08:25:57.723Z,58.00
2019-05-02T08:28:29.022Z,55.98
2019-05-02T08:30:58.663Z,55.57
2019-05-02T08:33:29.290Z,54.59
2019-05-02T08:35:59.687Z,54.84
2019-05-02T08:38:29.375Z,54.98
2019-05-02T08:40:58.998Z,54.98
2019-05-02T08:43:28.631Z,53.76
2019-05-02T08:45:58.293Z,54.90
2019-05-02T08:48:27.928Z,55.00
2019-05-02T08:50:57.598Z,53.70
2019-05-02T08:53:27.229Z,52.62
2019-05-02T08:55:56.893Z,52.63
2019-05-02T08:58:26.527Z,52.61
2019-05-02T09:00:56.269Z,52.80
2019-05-02T09:03:25.886Z,52.63
2019-05-02T09:06:05.504Z,52.39
2019-05-02T09:08:27.219Z,50.52
2019-05-02T09:10:56.848Z,51.34
2019-05-02T09:13:29.340Z,49.63
2019-05-02T09:15:57.936Z,47.39
2019-05-02T09:18:35.270Z,45.50
2019-05-02T09:20:58.956Z,46.70
2019-05-02T09:23:35.017Z,45.08
2019-05-02T09:26:00.133Z,43.53
2019-05-02T09:28:31.884Z,43.02
2019-05-02T09:31:04.974Z,42.56
2019-05-02T09:33:36.821Z,42.76
2019-05-02T09:36:04.064Z,40.92
2019-05-02T09:38:35.298Z,42.02
2019-05-02T09:41:16.124Z,42.92
2019-05-02T09:43:39.042Z,44.30
2019-05-02T09:46:12.826Z,42.11
2019-05-02T09:48:39.211Z,41.60
2019-05-02T09:51:15.669Z,41.17
2019-05-02T09:53:40.381Z,41.69
2019-05-02T09:56:10.036Z,41.82
2019-05-02T09:58:39.668Z,40.64
2019-05-02T10:01:14.151Z,39.78
2019-05-02T10:03:43.863Z,40.62
2019-05-02T10:06:18.054Z,39.95
2019-05-02T10:08:46.537Z,41.75
2019-05-02T10:11:16.937Z,41.75
2019-05-02T10:13:47.907Z,42.13
2019-05-02T10:16:22.382Z,41.36
2019-05-02T10:18:49.249Z,42.74
2019-05-02T10:21:19.116Z,41.66
2019-05-02T10:23:51.807Z,41.56
2019-05-02T10:26:24.550Z,40.25
2019-05-02T10:28:53.578Z,38.91
2019-05-02T10:31:27.577Z,40.09
2019-05-02T10:33:55.048Z,40.82
2019-05-02T10:36:24.811Z,40.90
2019-05-02T10:38:59.038Z,40.26
2019-05-02T10:41:25.845Z,40.02
2019-05-02T10:43:59.171Z,39.82
2019-05-02T10:46:33.452Z,40.03
2019-05-02T10:49:02.033Z,40.53
2019-05-02T10:51:35.014Z,39.87
2019-05-02T10:54:06.577Z,40.42
2019-05-02T10:56:36.433Z,40.76
2019-05-02T10:59:06.223Z,40.91
2019-05-02T11:01:37.597Z,41.22
2019-05-02T11:04:12.860Z,42.94
2019-05-02T11:06:46.189Z,45.63
2019-05-02T11:09:16.751Z,45.33
2019-05-02T11:11:46.114Z,44.56
2019-05-02T11:14:29.222Z,44.56
2019-05-02T11:17:03.194Z,44.41
2019-05-02T11:19:46.417Z,46.07
2019-05-02T11:22:16.165Z,44.79
2019-05-02T11:24:45.842Z,44.50
2019-05-02T11:27:15.459Z,41.95
2019-05-02T11:29:45.240Z,41.78
2019-05-02T11:32:14.932Z,41.33
2019-05-02T11:34:44.590Z,40.07
2019-05-02T11:37:14.286Z,38.47
2019-05-02T11:39:49.756Z,39.39
2019-05-02T11:42:17.801Z,38.55
2019-05-02T11:44:46.757Z,37.75
2019-05-02T11:47:17.341Z,37.07
2019-05-02T11:49:52.064Z,36.57
2019-05-02T11:52:19.282Z,35.77
2019-05-02T11:54:49.006Z,35.82
2019-05-02T11:57:22.799Z,36.68
2019-05-02T11:59:51.948Z,36.24
2019-05-02T12:02:25.698Z,35.16
2019-05-02T12:04:55.653Z,34.74
2019-05-02T12:07:25.508Z,35.29
2019-05-02T12:09:57.078Z,36.43
2019-05-02T12:12:27.190Z,35.61
2019-05-02T12:14:57.976Z,36.16
2019-05-02T12:17:27.695Z,35.83
2019-05-02T12:19:57.480Z,36.25
2019-05-02T12:22:27.154Z,39.43
2019-05-02T12:24:56.852Z,40.39
2019-05-02T12:27:26.537Z,41.67
2019-05-02T12:29:57.926Z,40.80
2019-05-02T12:32:27.842Z,41.01
2019-05-02T12:34:57.500Z,41.43
2019-05-02T12:37:27.135Z,42.79
2019-05-02T12:39:56.804Z,41.29
2019-05-02T12:42:26.868Z,41.53
2019-05-02T12:44:56.671Z,42.00
2019-05-02T12:47:26.301Z,40.62
2019-05-02T12:49:55.990Z,39.90
2019-05-02T12:52:25.620Z,39.49
2019-05-02T12:54:55.258Z,38.90
2019-05-02T12:57:24.922Z,37.62
2019-05-02T12:59:55.619Z,38.09
2019-05-02T13:02:32.437Z,39.17
2019-05-02T13:05:02.522Z,38.01
2019-05-02T13:07:32.318Z,38.51
2019-05-02T13:10:02.571Z,39.68
2019-05-02T13:12:34.098Z,40.71
2019-05-02T13:15:04.462Z,41.35
2019-05-02T13:17:42.520Z,42.42
2019-05-02T13:20:08.877Z,41.71
2019-05-02T13:22:52.660Z,42.40
2019-05-02T13:25:27.200Z,41.44
2019-05-02T13:27:56.155Z,41.22
2019-05-02T13:30:32.805Z,40.51
2019-05-02T13:33:03.365Z,39.97
2019-05-02T13:35:34.665Z,39.58
2019-05-02T13:38:05.379Z,36.78
2019-05-02T13:40:41.832Z,35.12
2019-05-02T13:43:12.653Z,34.12
2019-05-02T13:45:47.881Z,34.19
2019-05-02T13:48:17.508Z,33.44
2019-05-02T13:50:47.303Z,35.15
2019-05-02T13:53:17.073Z,34.36
2019-05-02T13:55:52.370Z,33.09
2019-05-02T13:58:29.046Z,35.74
2019-05-02T14:00:53.680Z,37.69
2019-05-02T14:03:23.918Z,35.90
2019-05-02T14:05:53.975Z,40.03
2019-05-02T14:08:37.227Z,33.26
2019-05-02T14:11:06.874Z,33.18
2019-05-02T14:13:37.084Z,32.93
2019-05-02T14:16:06.876Z,32.86
2019-05-02T14:18:36.510Z,32.36
2019-05-02T14:21:06.306Z,31.90
2019-05-02T14:23:35.943Z,31.10
2019-05-02T14:26:05.817Z,31.41
2019-05-02T14:28:36.346Z,30.70
2019-05-02T14:31:06.339Z,29.76
2019-05-02T14:33:37.633Z,28.59
2019-05-02T14:36:07.340Z,30.65
2019-05-02T14:38:37.070Z,30.76
2019-05-02T14:41:08.473Z,30.74
2019-05-02T14:43:55.289Z,28.75
2019-05-02T14:46:34.277Z,28.64
2019-05-02T14:48:57.384Z,29.02
2019-05-02T14:51:28.079Z,28.79
2019-05-02T14:54:03.610Z,28.92
2019-05-02T14:56:47.775Z,28.83
2019-05-02T14:59:19.743Z,29.25
2019-05-02T15:02:03.129Z,29.91
2019-05-02T15:04:28.372Z,30.33
2019-05-02T15:06:58.050Z,30.83
2019-05-02T15:09:27.676Z,31.47
2019-05-02T15:12:02.820Z,31.76
2019-05-02T15:14:34.818Z,32.04
2019-05-02T15:17:05.620Z,32.73
2019-05-02T15:19:35.256Z,34.71
2019-05-02T15:22:05.389Z,37.16
2019-05-02T15:24:37.400Z,38.54
2019-05-02T15:27:11.962Z,40.31
2019-05-02T15:29:37.799Z,41.58
2019-05-02T15:32:27.064Z,42.45
2019-05-02T15:35:06.921Z,43.02
2019-05-02T15:37:36.534Z,44.16
2019-05-02T15:42:43.186Z,45.79
2019-05-02T15:45:12.910Z,46.24
2019-05-02T15:47:45.272Z,47.60
2019-05-02T15:50:21.931Z,48.63
2019-05-02T15:52:57.327Z,48.57
2019-05-02T15:55:25.764Z,48.76
2019-05-02T15:57:55.400Z,48.97
2019-05-02T16:00:42.654Z,48.76
2019-05-02T16:03:12.285Z,49.43
2019-05-02T16:05:45.149Z,49.31
2019-05-02T16:08:13.289Z,49.71
2019-05-02T16:10:42.973Z,50.21
2019-05-02T16:13:17.150Z,50.59
2019-05-02T16:15:44.960Z,51.25
2019-05-02T16:18:14.620Z,51.50
2019-05-02T16:20:49.312Z,51.58
2019-05-02T16:23:27.486Z,51.45
2019-05-02T16:25:52.288Z,52.31
2019-05-02T16:28:21.796Z,53.95
2019-05-02T16:30:53.122Z,54.37
2019-05-02T16:33:22.758Z,54.41
2019-05-02T16:35:54.445Z,54.97
2019-05-02T16:38:26.735Z,55.20
2019-05-02T16:40:55.166Z,55.10
2019-05-02T16:43:26.471Z,53.83
2019-05-02T16:45:56.142Z,54.12
2019-05-02T16:48:32.384Z,54.05
2019-05-02T16:50:57.163Z,53.65
2019-05-02T16:53:26.795Z,53.62
2019-05-02T16:55:58.376Z,53.66
2019-05-02T16:58:28.111Z,53.36
2019-05-02T17:00:57.831Z,52.71
2019-05-02T17:03:27.584Z,53.15
2019-05-02T17:05:57.199Z,52.69
2019-05-02T17:08:32.830Z,52.63
2019-05-02T17:11:04.267Z,53.04
2019-05-02T17:13:35.799Z,53.87
2019-05-02T17:16:13.010Z,53.13
2019-05-02T17:18:36.841Z,53.17
2019-05-02T17:21:06.706Z,53.48
2019-05-02T17:23:37.370Z,53.64
2019-05-02T17:26:07.981Z,53.21
2019-05-02T17:28:37.990Z,53.80
2019-05-02T17:31:10.783Z,53.93
2019-05-02T17:33:41.712Z,53.65
2019-05-02T17:36:11.683Z,53.84
2019-05-02T17:38:41.830Z,54.18
2019-05-02T17:41:11.909Z,54.01
2019-05-02T17:43:42.175Z,53.24
2019-05-02T17:46:18.296Z,53.81
2019-05-02T17:48:47.611Z,54.44
2019-05-02T17:51:20.330Z,54.20
2019-05-02T17:53:50.143Z,54.22
2019-05-02T17:56:22.709Z,54.61
2019-05-02T17:58:54.303Z,54.70
2019-05-02T18:01:33.389Z,54.08
2019-05-02T18:03:59.010Z,54.50
2019-05-02T18:06:32.859Z,53.79
2019-05-02T18:09:00.038Z,53.81
2019-05-02T18:11:36.312Z,53.98
2019-05-02T18:14:03.296Z,53.45
2019-05-02T18:16:32.520Z,52.37
2019-05-02T18:19:02.187Z,52.50
2019-05-02T18:21:32.318Z,52.75
2019-05-02T18:24:05.924Z,52.90
2019-05-02T18:26:33.505Z,53.12
2019-05-02T18:29:06.902Z,53.50
2019-05-02T18:31:39.105Z,53.68
2019-05-02T18:34:06.133Z,52.94
2019-05-02T18:36:35.793Z,53.08
2019-05-02T18:39:08.337Z,52.88
2019-05-02T18:41:44.672Z,52.95
2019-05-02T18:44:11.682Z,53.77
2019-05-02T18:46:41.591Z,54.18
2019-05-02T18:49:12.477Z,53.72
2019-05-02T18:51:48.332Z,53.44
2019-05-02T18:54:15.406Z,53.77
2019-05-02T18:56:50.104Z,53.72
2019-05-02T18:59:19.913Z,53.73
2019-05-02T19:01:52.716Z,54.27
2019-05-02T19:04:22.394Z,54.42
2019-05-02T19:06:52.027Z,54.18
2019-05-02T19:09:22.827Z,53.85
2019-05-02T19:12:04.492Z,53.96
2019-05-02T19:14:26.026Z,54.29
2019-05-02T19:16:58.085Z,54.68
2019-05-02T19:19:32.310Z,54.32
2019-05-02T19:21:58.958Z,54.82
2019-05-02T19:24:34.956Z,55.41
2019-05-02T19:27:02.088Z,55.14
2019-05-02T19:29:31.967Z,55.57
2019-05-02T19:32:01.802Z,55.61
2019-05-02T19:34:32.353Z,55.99
2019-05-02T19:37:03.033Z,56.05
2019-05-02T19:39:38.959Z,56.43
2019-05-02T19:42:07.708Z,56.47
2019-05-02T19:44:37.411Z,56.69
2019-05-02T19:47:08.219Z,56.66
2019-05-02T19:49:38.577Z,56.75
2019-05-02T19:52:08.377Z,56.69
2019-05-02T19:54:41.216Z,57.33
2019-05-02T19:57:09.476Z,57.57
2019-05-02T19:59:39.117Z,57.74
2019-05-02T20:02:08.915Z,58.03
2019-05-02T20:04:42.768Z,58.34
2019-05-02T20:07:13.162Z,58.57
2019-05-02T20:09:46.191Z,58.81
2019-05-02T20:12:15.729Z,58.73
2019-05-02T20:14:47.450Z,59.35
2019-05-02T20:17:20.133Z,59.10
2019-05-02T20:19:50.201Z,59.38
2019-05-02T20:22:19.906Z,60.24
2019-05-02T20:25:00.102Z,60.30
2019-05-02T20:27:28.870Z,60.70
2019-05-02T20:29:59.007Z,60.64
2019-05-02T20:32:28.709Z,61.12
2019-05-02T20:34:58.439Z,61.03
2019-05-02T20:37:28.242Z,61.27
2019-05-02T20:39:57.980Z,61.06
2019-05-02T20:42:27.706Z,60.97
2019-05-02T20:44:57.404Z,61.06
2019-05-02T20:47:28.174Z,61.63
2019-05-02T20:49:57.960Z,62.10
2019-05-02T20:52:27.630Z,62.54
2019-05-02T20:54:57.333Z,62.30
2019-05-02T20:57:26.992Z,62.97
2019-05-02T20:59:56.707Z,62.42
2019-05-02T21:02:26.432Z,62.84
2019-05-02T21:04:56.136Z,62.69
2019-05-02T21:07:42.889Z,63.38
2019-05-02T21:10:14.361Z,63.18
2019-05-02T21:12:44.025Z,63.97
2019-05-02T21:15:13.865Z,64.13
2019-05-02T21:17:43.597Z,64.28
2019-05-02T21:20:13.443Z,63.95
2019-05-02T21:22:43.165Z,64.24
2019-05-02T21:25:13.206Z,64.15
2019-05-02T21:27:43.418Z,63.91
2019-05-02T21:30:14.597Z,63.88
2019-05-02T21:32:44.346Z,64.01
2019-05-02T21:35:14.131Z,64.06
2019-05-02T21:37:43.764Z,64.30
2019-05-02T21:40:13.656Z,64.80
2019-05-02T21:42:43.297Z,64.95
2019-05-02T21:45:13.363Z,64.97
2019-05-02T21:47:43.160Z,64.69
2019-05-02T21:50:15.270Z,65.48
2019-05-02T21:52:49.262Z,65.64
2019-05-02T21:55:26.516Z,65.87
2019-05-02T21:57:56.148Z,66.36
2019-05-02T22:00:42.259Z,66.29
2019-05-02T22:03:12.599Z,66.16
2019-05-02T22:05:43.008Z,66.82
2019-05-02T22:08:13.078Z,67.10
2019-05-02T22:10:42.776Z,67.65
2019-05-02T22:13:12.508Z,67.50
2019-05-02T22:15:42.138Z,68.39
2019-05-02T22:18:11.804Z,68.54
2019-05-02T22:20:42.777Z,68.81
2019-05-02T22:23:12.861Z,68.46
2019-05-02T22:25:42.489Z,68.80
2019-05-02T22:28:12.648Z,68.54
2019-05-02T22:30:42.927Z,69.73
2019-05-02T22:33:12.797Z,69.35
2019-05-02T22:35:43.369Z,69.48
2019-05-02T22:38:23.828Z,69.45
2019-05-02T22:40:55.203Z,69.48
2019-05-02T22:43:24.850Z,70.01
2019-05-02T22:45:54.523Z,69.59
2019-05-02T22:48:24.163Z,69.98
2019-05-02T22:50:53.835Z,70.25
2019-05-02T22:53:23.522Z,69.96
2019-05-02T22:55:53.192Z,70.91
2019-05-02T22:58:22.829Z,70.97
2019-05-02T23:00:52.497Z,70.48
2019-05-02T23:03:24.159Z,70.71
2019-05-02T23:05:53.563Z,71.38
2019-05-02T23:08:23.375Z,71.01
2019-05-02T23:10:53.085Z,70.54
2019-05-02T23:13:24.667Z,70.45
2019-05-02T23:15:54.107Z,70.56
2019-05-02T23:18:23.775Z,70.37
2019-05-02T23:20:53.550Z,70.67
2019-05-02T23:23:24.199Z,70.32
2019-05-02T23:26:01.531Z,70.35
2019-05-02T23:28:32.931Z,69.86
2019-05-02T23:31:02.726Z,69.89
2019-05-02T23:33:51.624Z,69.94
2019-05-02T23:36:21.359Z,69.86
2019-05-02T23:38:52.222Z,70.15
2019-05-02T23:41:22.148Z,69.95
2019-05-02T23:43:52.464Z,69.62
2019-05-02T23:46:23.468Z,69.83
2019-05-02T23:48:53.563Z,69.83
2019-05-02T23:51:23.294Z,70.28
2019-05-02T23:53:53.067Z,71.07
2019-05-02T23:56:22.798Z,71.09
2019-05-02T23:58:52.452Z,71.89
